aviador You're here:

VHHH Decoded Metar

HONG KONG in HONG KONG
Report Time2017-10-24 02:00:00
UTC Time2017-10-24 02:22:21
Flight Rules vfr VFR
Wind040° at 07 kt
W.Decomp.*RWY 07: 6.2 kt HW 3.3 kt LCW
W.Rank040° ranks 9
Current wind is below 040° avg. (7.5)
Visibility9999 m
Phenomena:N/A
Clouds:N/A
Expected CloudBase > 4,800 ft AGL from Temp-Dew spread
CeilingNone
Temp26°C (ISA +11)
Dew Point14°C (48% RH)
AAT24.8°C
QNH1020 hPa
Density Alt1,289 ft
Elevation30 ft
Report Wrong Elevation
Raw Report
VHHH 240200Z 04007KT 010V070 CAVOK 26/14 Q1020 NOSIG=

Extra information for VHHH:More info

Metar Taf Metar & Taf Last 4 Metars F.Rules Stats Wind Profile Meteogram Temp Stats Airport Information Weather charts Add Link Nearby VenuesMetar ALERT Operation Metar Decoded Social comments